sensor_id;sensor_type;location;lat;lon;timestamp;P1;durP1;ratioP1;P2;durP2;ratioP2
16735;SDS011;17990;49.548;9.730;2023-02-01T00:00:00;7.33;;;4.23;;
16735;SDS011;17990;49.548;9.730;2023-02-01T00:02:28;5.53;;;3.67;;
16735;SDS011;17990;49.548;9.730;2023-02-01T00:04:55;6.23;;;4.10;;
16735;SDS011;17990;49.548;9.730;2023-02-01T00:07:22;8.00;;;4.33;;
16735;SDS011;17990;49.548;9.730;2023-02-01T00:09:50;8.17;;;4.33;;
16735;SDS011;17990;49.548;9.730;2023-02-01T00:12:17;5.20;;;3.67;;
16735;SDS011;17990;49.548;9.730;2023-02-01T00:14:47;6.50;;;3.80;;
16735;SDS011;17990;49.548;9.730;2023-02-01T00:17:14;5.77;;;3.70;;
16735;SDS011;17990;49.548;9.730;2023-02-01T00:19:41;4.80;;;3.10;;
16735;SDS011;17990;49.548;9.730;2023-02-01T00:22:08;5.43;;;3.87;;
16735;SDS011;17990;49.548;9.730;2023-02-01T00:24:35;5.97;;;3.70;;
16735;SDS011;17990;49.548;9.730;2023-02-01T00:27:02;5.40;;;3.70;;
16735;SDS011;17990;49.548;9.730;2023-02-01T00:29:30;5.80;;;3.53;;
16735;SDS011;17990;49.548;9.730;2023-02-01T00:31:58;7.87;;;3.67;;
16735;SDS011;17990;49.548;9.730;2023-02-01T00:34:26;4.37;;;3.00;;
16735;SDS011;17990;49.548;9.730;2023-02-01T00:36:53;4.73;;;3.00;;
16735;SDS011;17990;49.548;9.730;2023-02-01T00:39:20;6.20;;;3.13;;
16735;SDS011;17990;49.548;9.730;2023-02-01T00:41:47;5.20;;;3.10;;
16735;SDS011;17990;49.548;9.730;2023-02-01T00:44:15;4.67;;;3.20;;
16735;SDS011;17990;49.548;9.730;2023-02-01T00:46:42;5.17;;;3.53;;
16735;SDS011;17990;49.548;9.730;2023-02-01T00:49:13;4.50;;;3.70;;
16735;SDS011;17990;49.548;9.730;2023-02-01T00:51:40;4.37;;;3.17;;
16735;SDS011;17990;49.548;9.730;2023-02-01T00:54:07;5.13;;;3.60;;
16735;SDS011;17990;49.548;9.730;2023-02-01T00:56:34;4.97;;;3.57;;
16735;SDS011;17990;49.548;9.730;2023-02-01T00:59:02;5.13;;;3.60;;
16735;SDS011;17990;49.548;9.730;2023-02-01T01:01:29;4.87;;;3.53;;
16735;SDS011;17990;49.548;9.730;2023-02-01T01:03:57;4.80;;;3.53;;
16735;SDS011;17990;49.548;9.730;2023-02-01T01:06:27;5.33;;;3.63;;
16735;SDS011;17990;49.548;9.730;2023-02-01T01:08:57;4.30;;;3.23;;
16735;SDS011;17990;49.548;9.730;2023-02-01T01:11:27;4.23;;;3.33;;
16735;SDS011;17990;49.548;9.730;2023-02-01T01:13:56;5.27;;;3.70;;
16735;SDS011;17990;49.548;9.730;2023-02-01T01:16:25;4.33;;;3.10;;
16735;SDS011;17990;49.548;9.730;2023-02-01T01:18:53;10.87;;;3.80;;
16735;SDS011;17990;49.548;9.730;2023-02-01T01:21:21;6.43;;;3.67;;
16735;SDS011;17990;49.548;9.730;2023-02-01T01:23:50;6.77;;;3.50;;
16735;SDS011;17990;49.548;9.730;2023-02-01T01:26:18;6.63;;;3.50;;
16735;SDS011;17990;49.548;9.730;2023-02-01T01:28:47;6.00;;;3.50;;
16735;SDS011;17990;49.548;9.730;2023-02-01T01:31:15;7.43;;;3.73;;
16735;SDS011;17990;49.548;9.730;2023-02-01T01:33:47;5.10;;;3.40;;
16735;SDS011;17990;49.548;9.730;2023-02-01T01:36:15;8.27;;;3.57;;
16735;SDS011;17990;49.548;9.730;2023-02-01T01:38:43;3.77;;;3.23;;
16735;SDS011;17990;49.548;9.730;2023-02-01T01:41:13;5.20;;;3.77;;
16735;SDS011;17990;49.548;9.730;2023-02-01T01:43:48;6.53;;;3.83;;
16735;SDS011;17990;49.548;9.730;2023-02-01T01:46:18;4.73;;;3.10;;
16735;SDS011;17990;49.548;9.730;2023-02-01T01:48:45;5.53;;;3.37;;
16735;SDS011;17990;49.548;9.730;2023-02-01T01:51:16;5.27;;;3.47;;
16735;SDS011;17990;49.548;9.730;2023-02-01T01:53:46;5.60;;;3.60;;
16735;SDS011;17990;49.548;9.730;2023-02-01T01:56:17;4.97;;;3.63;;
16735;SDS011;17990;49.548;9.730;2023-02-01T01:58:44;6.47;;;3.53;;
16735;SDS011;17990;49.548;9.730;2023-02-01T02:01:12;6.43;;;3.93;;
16735;SDS011;17990;49.548;9.730;2023-02-01T02:03:40;5.67;;;3.70;;
16735;SDS011;17990;49.548;9.730;2023-02-01T02:06:11;4.53;;;3.20;;
16735;SDS011;17990;49.548;9.730;2023-02-01T02:08:41;5.67;;;3.20;;
16735;SDS011;17990;49.548;9.730;2023-02-01T02:11:09;4.30;;;3.23;;
16735;SDS011;17990;49.548;9.730;2023-02-01T02:13:39;4.97;;;3.50;;
16735;SDS011;17990;49.548;9.730;2023-02-01T02:16:13;5.57;;;3.67;;
16735;SDS011;17990;49.548;9.730;2023-02-01T02:18:51;3.80;;;3.10;;
16735;SDS011;17990;49.548;9.730;2023-02-01T02:21:30;5.27;;;3.00;;
16735;SDS011;17990;49.548;9.730;2023-02-01T02:24:22;7.37;;;3.60;;
16735;SDS011;17990;49.548;9.730;2023-02-01T02:27:11;5.47;;;3.13;;
16735;SDS011;17990;49.548;9.730;2023-02-01T02:33:14;4.93;;;3.70;;
16735;SDS011;17990;49.548;9.730;2023-02-01T02:36:05;6.70;;;3.77;;
16735;SDS011;17990;49.548;9.730;2023-02-01T02:38:36;6.17;;;3.70;;
16735;SDS011;17990;49.548;9.730;2023-02-01T02:41:10;7.67;;;3.80;;
16735;SDS011;17990;49.548;9.730;2023-02-01T02:44:02;4.70;;;3.43;;
16735;SDS011;17990;49.548;9.730;2023-02-01T02:46:53;7.20;;;3.90;;
16735;SDS011;17990;49.548;9.730;2023-02-01T02:49:46;6.27;;;4.10;;
16735;SDS011;17990;49.548;9.730;2023-02-01T02:52:38;5.80;;;3.70;;
16735;SDS011;17990;49.548;9.730;2023-02-01T02:55:25;6.47;;;3.70;;
16735;SDS011;17990;49.548;9.730;2023-02-01T02:57:53;4.83;;;3.50;;
16735;SDS011;17990;49.548;9.730;2023-02-01T03:00:39;4.70;;;3.10;;
16735;SDS011;17990;49.548;9.730;2023-02-01T03:03:24;6.10;;;3.77;;
16735;SDS011;17990;49.548;9.730;2023-02-01T03:06:12;7.93;;;3.53;;
16735;SDS011;17990;49.548;9.730;2023-02-01T03:08:40;5.80;;;3.50;;
16735;SDS011;17990;49.548;9.730;2023-02-01T03:11:10;4.80;;;3.13;;
16735;SDS011;17990;49.548;9.730;2023-02-01T03:13:41;3.93;;;3.40;;
16735;SDS011;17990;49.548;9.730;2023-02-01T03:16:11;6.63;;;3.10;;
16735;SDS011;17990;49.548;9.730;2023-02-01T03:18:42;6.30;;;3.60;;
16735;SDS011;17990;49.548;9.730;2023-02-01T03:21:16;5.80;;;3.10;;
16735;SDS011;17990;49.548;9.730;2023-02-01T03:23:44;3.93;;;2.90;;
16735;SDS011;17990;49.548;9.730;2023-02-01T03:26:13;4.73;;;3.53;;
16735;SDS011;17990;49.548;9.730;2023-02-01T03:28:43;4.40;;;3.00;;
16735;SDS011;17990;49.548;9.730;2023-02-01T03:31:12;7.63;;;3.50;;
16735;SDS011;17990;49.548;9.730;2023-02-01T03:33:39;7.47;;;3.13;;
16735;SDS011;17990;49.548;9.730;2023-02-01T03:36:10;4.37;;;3.13;;
16735;SDS011;17990;49.548;9.730;2023-02-01T03:38:45;5.57;;;3.20;;
16735;SDS011;17990;49.548;9.730;2023-02-01T03:41:17;5.97;;;3.23;;
16735;SDS011;17990;49.548;9.730;2023-02-01T03:43:49;4.83;;;3.30;;
16735;SDS011;17990;49.548;9.730;2023-02-01T03:46:21;5.23;;;3.27;;
16735;SDS011;17990;49.548;9.730;2023-02-01T03:48:57;3.83;;;3.10;;
16735;SDS011;17990;49.548;9.730;2023-02-01T03:51:28;7.50;;;3.80;;
16735;SDS011;17990;49.548;9.730;2023-02-01T03:53:56;4.60;;;3.30;;
16735;SDS011;17990;49.548;9.730;2023-02-01T03:56:24;7.93;;;3.80;;
16735;SDS011;17990;49.548;9.730;2023-02-01T03:58:52;6.13;;;3.30;;
16735;SDS011;17990;49.548;9.730;2023-02-01T04:01:26;4.77;;;3.30;;
16735;SDS011;17990;49.548;9.730;2023-02-01T04:03:54;4.77;;;3.13;;
16735;SDS011;17990;49.548;9.730;2023-02-01T04:06:21;6.33;;;3.43;;
16735;SDS011;17990;49.548;9.730;2023-02-01T04:08:51;4.73;;;3.23;;
16735;SDS011;17990;49.548;9.730;2023-02-01T04:11:18;4.63;;;3.53;;
16735;SDS011;17990;49.548;9.730;2023-02-01T04:13:45;4.57;;;3.07;;
16735;SDS011;17990;49.548;9.730;2023-02-01T04:16:12;4.77;;;3.13;;
16735;SDS011;17990;49.548;9.730;2023-02-01T04:18:40;5.37;;;3.20;;
16735;SDS011;17990;49.548;9.730;2023-02-01T04:21:07;4.90;;;3.20;;
16735;SDS011;17990;49.548;9.730;2023-02-01T04:23:34;5.03;;;3.10;;
16735;SDS011;17990;49.548;9.730;2023-02-01T04:26:04;4.90;;;2.73;;
16735;SDS011;17990;49.548;9.730;2023-02-01T04:28:31;6.43;;;2.80;;
16735;SDS011;17990;49.548;9.730;2023-02-01T04:30:58;4.80;;;2.70;;
16735;SDS011;17990;49.548;9.730;2023-02-01T04:33:26;3.13;;;2.60;;
16735;SDS011;17990;49.548;9.730;2023-02-01T04:35:53;5.03;;;2.80;;
16735;SDS011;17990;49.548;9.730;2023-02-01T04:38:20;7.47;;;2.83;;
16735;SDS011;17990;49.548;9.730;2023-02-01T04:40:48;6.73;;;2.93;;
16735;SDS011;17990;49.548;9.730;2023-02-01T04:43:16;4.87;;;3.27;;
16735;SDS011;17990;49.548;9.730;2023-02-01T04:45:47;4.33;;;2.77;;
16735;SDS011;17990;49.548;9.730;2023-02-01T04:48:15;4.33;;;2.20;;
16735;SDS011;17990;49.548;9.730;2023-02-01T04:50:42;4.93;;;2.60;;
16735;SDS011;17990;49.548;9.730;2023-02-01T04:53:12;2.63;;;1.80;;
16735;SDS011;17990;49.548;9.730;2023-02-01T04:55:40;7.23;;;2.00;;
16735;SDS011;17990;49.548;9.730;2023-02-01T04:58:07;3.13;;;1.60;;
16735;SDS011;17990;49.548;9.730;2023-02-01T05:00:36;6.93;;;1.60;;
16735;SDS011;17990;49.548;9.730;2023-02-01T05:03:03;4.47;;;1.57;;
16735;SDS011;17990;49.548;9.730;2023-02-01T05:05:30;1.73;;;1.10;;
16735;SDS011;17990;49.548;9.730;2023-02-01T05:07:57;7.70;;;1.47;;
16735;SDS011;17990;49.548;9.730;2023-02-01T05:10:25;3.57;;;1.53;;
16735;SDS011;17990;49.548;9.730;2023-02-01T05:12:52;4.87;;;1.30;;
16735;SDS011;17990;49.548;9.730;2023-02-01T05:15:38;1.63;;;1.10;;
16735;SDS011;17990;49.548;9.730;2023-02-01T05:18:05;3.07;;;1.40;;
16735;SDS011;17990;49.548;9.730;2023-02-01T05:20:32;4.10;;;1.50;;
16735;SDS011;17990;49.548;9.730;2023-02-01T05:22:59;2.80;;;1.40;;
16735;SDS011;17990;49.548;9.730;2023-02-01T05:25:27;2.00;;;1.30;;
16735;SDS011;17990;49.548;9.730;2023-02-01T05:27:54;4.37;;;2.07;;
16735;SDS011;17990;49.548;9.730;2023-02-01T05:30:21;4.53;;;1.90;;
16735;SDS011;17990;49.548;9.730;2023-02-01T05:32:50;4.37;;;2.07;;
16735;SDS011;17990;49.548;9.730;2023-02-01T05:35:18;3.27;;;1.97;;
16735;SDS011;17990;49.548;9.730;2023-02-01T05:37:48;5.10;;;2.70;;
16735;SDS011;17990;49.548;9.730;2023-02-01T05:40:15;4.77;;;2.83;;
16735;SDS011;17990;49.548;9.730;2023-02-01T05:42:43;4.63;;;2.33;;
16735;SDS011;17990;49.548;9.730;2023-02-01T05:45:10;4.20;;;3.00;;
16735;SDS011;17990;49.548;9.730;2023-02-01T05:47:37;5.47;;;3.37;;
16735;SDS011;17990;49.548;9.730;2023-02-01T05:50:07;6.10;;;3.80;;
16735;SDS011;17990;49.548;9.730;2023-02-01T05:52:34;6.80;;;4.60;;
16735;SDS011;17990;49.548;9.730;2023-02-01T05:55:02;5.00;;;3.33;;
16735;SDS011;17990;49.548;9.730;2023-02-01T05:57:29;4.83;;;3.10;;
16735;SDS011;17990;49.548;9.730;2023-02-01T05:59:56;5.73;;;2.63;;
16735;SDS011;17990;49.548;9.730;2023-02-01T06:02:24;3.47;;;2.70;;
16735;SDS011;17990;49.548;9.730;2023-02-01T06:04:51;3.43;;;2.30;;
16735;SDS011;17990;49.548;9.730;2023-02-01T06:07:20;4.20;;;2.70;;
16735;SDS011;17990;49.548;9.730;2023-02-01T06:09:48;5.20;;;2.53;;
16735;SDS011;17990;49.548;9.730;2023-02-01T06:12:15;3.23;;;2.40;;
16735;SDS011;17990;49.548;9.730;2023-02-01T06:14:43;4.70;;;2.17;;
16735;SDS011;17990;49.548;9.730;2023-02-01T06:17:10;3.00;;;2.13;;
16735;SDS011;17990;49.548;9.730;2023-02-01T06:19:37;3.37;;;1.97;;
16735;SDS011;17990;49.548;9.730;2023-02-01T06:22:05;3.63;;;2.20;;
16735;SDS011;17990;49.548;9.730;2023-02-01T06:24:34;4.60;;;2.07;;
16735;SDS011;17990;49.548;9.730;2023-02-01T06:27:01;4.40;;;2.00;;
16735;SDS011;17990;49.548;9.730;2023-02-01T06:29:28;2.67;;;2.10;;
16735;SDS011;17990;49.548;9.730;2023-02-01T06:31:55;2.33;;;1.80;;
16735;SDS011;17990;49.548;9.730;2023-02-01T06:34:22;2.77;;;1.80;;
16735;SDS011;17990;49.548;9.730;2023-02-01T06:36:50;2.23;;;1.67;;
16735;SDS011;17990;49.548;9.730;2023-02-01T06:39:17;3.07;;;1.80;;
16735;SDS011;17990;49.548;9.730;2023-02-01T06:41:46;2.67;;;1.57;;
16735;SDS011;17990;49.548;9.730;2023-02-01T06:44:14;2.87;;;1.50;;
16735;SDS011;17990;49.548;9.730;2023-02-01T06:46:41;2.73;;;1.50;;
16735;SDS011;17990;49.548;9.730;2023-02-01T06:49:09;3.87;;;2.10;;
16735;SDS011;17990;49.548;9.730;2023-02-01T06:51:36;3.13;;;1.60;;
16735;SDS011;17990;49.548;9.730;2023-02-01T06:54:03;3.20;;;1.10;;
16735;SDS011;17990;49.548;9.730;2023-02-01T06:56:30;2.83;;;1.27;;
16735;SDS011;17990;49.548;9.730;2023-02-01T06:58:59;2.47;;;1.10;;
16735;SDS011;17990;49.548;9.730;2023-02-01T07:01:27;1.80;;;1.00;;
16735;SDS011;17990;49.548;9.730;2023-02-01T07:03:55;1.97;;;1.00;;
16735;SDS011;17990;49.548;9.730;2023-02-01T07:06:22;1.13;;;0.70;;
16735;SDS011;17990;49.548;9.730;2023-02-01T07:08:49;2.83;;;0.93;;
16735;SDS011;17990;49.548;9.730;2023-02-01T07:11:17;2.37;;;1.20;;
16735;SDS011;17990;49.548;9.730;2023-02-01T07:13:45;3.40;;;1.00;;
16735;SDS011;17990;49.548;9.730;2023-02-01T07:16:14;2.87;;;1.10;;
16735;SDS011;17990;49.548;9.730;2023-02-01T07:18:43;2.37;;;1.10;;
16735;SDS011;17990;49.548;9.730;2023-02-01T07:21:10;3.43;;;1.30;;
16735;SDS011;17990;49.548;9.730;2023-02-01T07:23:38;1.40;;;0.90;;
16735;SDS011;17990;49.548;9.730;2023-02-01T07:26:06;2.77;;;1.23;;
16735;SDS011;17990;49.548;9.730;2023-02-01T07:28:34;2.80;;;1.37;;
16735;SDS011;17990;49.548;9.730;2023-02-01T07:31:02;1.77;;;1.17;;
16735;SDS011;17990;49.548;9.730;2023-02-01T07:33:31;3.67;;;1.23;;
16735;SDS011;17990;49.548;9.730;2023-02-01T07:36:00;2.07;;;1.30;;
16735;SDS011;17990;49.548;9.730;2023-02-01T07:38:28;2.17;;;1.50;;
16735;SDS011;17990;49.548;9.730;2023-02-01T07:40:59;1.93;;;1.33;;
16735;SDS011;17990;49.548;9.730;2023-02-01T07:43:26;2.77;;;1.60;;
16735;SDS011;17990;49.548;9.730;2023-02-01T07:45:54;3.40;;;1.50;;
16735;SDS011;17990;49.548;9.730;2023-02-01T07:48:24;3.17;;;1.50;;
16735;SDS011;17990;49.548;9.730;2023-02-01T07:50:58;3.33;;;1.80;;
16735;SDS011;17990;49.548;9.730;2023-02-01T07:53:25;5.67;;;2.77;;
16735;SDS011;17990;49.548;9.730;2023-02-01T07:55:52;9.90;;;2.63;;
16735;SDS011;17990;49.548;9.730;2023-02-01T07:58:21;4.47;;;2.63;;
16735;SDS011;17990;49.548;9.730;2023-02-01T08:00:48;8.20;;;2.63;;
16735;SDS011;17990;49.548;9.730;2023-02-01T08:03:33;6.47;;;2.23;;
16735;SDS011;17990;49.548;9.730;2023-02-01T08:06:01;6.47;;;2.40;;
16735;SDS011;17990;49.548;9.730;2023-02-01T08:08:29;5.93;;;2.77;;
16735;SDS011;17990;49.548;9.730;2023-02-01T08:10:57;5.93;;;2.80;;
16735;SDS011;17990;49.548;9.730;2023-02-01T08:13:24;6.33;;;3.27;;
16735;SDS011;17990;49.548;9.730;2023-02-01T08:15:51;7.43;;;3.30;;
16735;SDS011;17990;49.548;9.730;2023-02-01T08:18:18;5.77;;;3.50;;
16735;SDS011;17990;49.548;9.730;2023-02-01T08:20:45;10.07;;;4.63;;
16735;SDS011;17990;49.548;9.730;2023-02-01T08:23:14;7.37;;;3.63;;
16735;SDS011;17990;49.548;9.730;2023-02-01T08:25:42;7.80;;;3.30;;
16735;SDS011;17990;49.548;9.730;2023-02-01T08:28:09;9.60;;;2.83;;
16735;SDS011;17990;49.548;9.730;2023-02-01T08:30:37;6.37;;;2.43;;
16735;SDS011;17990;49.548;9.730;2023-02-01T08:33:04;5.33;;;2.00;;
16735;SDS011;17990;49.548;9.730;2023-02-01T08:35:32;5.03;;;2.10;;
16735;SDS011;17990;49.548;9.730;2023-02-01T08:38:00;7.10;;;2.27;;
16735;SDS011;17990;49.548;9.730;2023-02-01T08:40:29;4.80;;;1.97;;
16735;SDS011;17990;49.548;9.730;2023-02-01T08:42:56;5.80;;;1.93;;
16735;SDS011;17990;49.548;9.730;2023-02-01T08:45:26;4.90;;;2.30;;
16735;SDS011;17990;49.548;9.730;2023-02-01T08:47:55;4.70;;;2.30;;
16735;SDS011;17990;49.548;9.730;2023-02-01T08:50:22;6.87;;;2.73;;
16735;SDS011;17990;49.548;9.730;2023-02-01T08:52:50;7.43;;;2.80;;
16735;SDS011;17990;49.548;9.730;2023-02-01T08:55:17;8.87;;;3.00;;
16735;SDS011;17990;49.548;9.730;2023-02-01T08:57:46;11.50;;;2.50;;
16735;SDS011;17990;49.548;9.730;2023-02-01T09:00:14;4.93;;;2.53;;
16735;SDS011;17990;49.548;9.730;2023-02-01T09:02:43;5.73;;;2.03;;
16735;SDS011;17990;49.548;9.730;2023-02-01T09:05:10;9.10;;;2.50;;
16735;SDS011;17990;49.548;9.730;2023-02-01T09:07:39;8.80;;;2.67;;
16735;SDS011;17990;49.548;9.730;2023-02-01T09:10:07;6.43;;;2.63;;
16735;SDS011;17990;49.548;9.730;2023-02-01T09:12:35;9.17;;;2.60;;
16735;SDS011;17990;49.548;9.730;2023-02-01T09:15:04;8.77;;;2.53;;
16735;SDS011;17990;49.548;9.730;2023-02-01T09:17:33;6.23;;;2.73;;
16735;SDS011;17990;49.548;9.730;2023-02-01T09:20:00;5.17;;;2.40;;
16735;SDS011;17990;49.548;9.730;2023-02-01T09:22:28;10.63;;;3.00;;
16735;SDS011;17990;49.548;9.730;2023-02-01T09:24:55;9.70;;;2.73;;
16735;SDS011;17990;49.548;9.730;2023-02-01T09:27:22;9.30;;;2.70;;
16735;SDS011;17990;49.548;9.730;2023-02-01T09:29:49;9.03;;;2.77;;
16735;SDS011;17990;49.548;9.730;2023-02-01T09:32:19;5.17;;;2.10;;
16735;SDS011;17990;49.548;9.730;2023-02-01T09:34:47;10.70;;;2.63;;
16735;SDS011;17990;49.548;9.730;2023-02-01T09:37:14;6.83;;;2.43;;
16735;SDS011;17990;49.548;9.730;2023-02-01T09:39:41;6.13;;;2.17;;
16735;SDS011;17990;49.548;9.730;2023-02-01T09:42:14;10.67;;;2.80;;
16735;SDS011;17990;49.548;9.730;2023-02-01T09:44:52;8.17;;;2.40;;
16735;SDS011;17990;49.548;9.730;2023-02-01T09:47:28;7.37;;;2.40;;
16735;SDS011;17990;49.548;9.730;2023-02-01T09:49:57;5.57;;;2.03;;
16735;SDS011;17990;49.548;9.730;2023-02-01T09:52:29;6.47;;;1.97;;
16735;SDS011;17990;49.548;9.730;2023-02-01T09:55:01;9.63;;;1.90;;
16735;SDS011;17990;49.548;9.730;2023-02-01T09:57:35;6.43;;;2.27;;
16735;SDS011;17990;49.548;9.730;2023-02-01T10:00:09;6.13;;;1.80;;
16735;SDS011;17990;49.548;9.730;2023-02-01T10:02:42;8.63;;;2.10;;
16735;SDS011;17990;49.548;9.730;2023-02-01T10:05:12;7.77;;;2.03;;
16735;SDS011;17990;49.548;9.730;2023-02-01T10:07:42;8.93;;;2.23;;
16735;SDS011;17990;49.548;9.730;2023-02-01T10:10:15;6.60;;;2.13;;
16735;SDS011;17990;49.548;9.730;2023-02-01T10:15:40;8.07;;;2.40;;
16735;SDS011;17990;49.548;9.730;2023-02-01T10:18:18;5.93;;;1.90;;
16735;SDS011;17990;49.548;9.730;2023-02-01T10:21:00;8.77;;;2.00;;
16735;SDS011;17990;49.548;9.730;2023-02-01T10:23:39;9.67;;;1.83;;
16735;SDS011;17990;49.548;9.730;2023-02-01T10:26:12;8.87;;;2.10;;
16735;SDS011;17990;49.548;9.730;2023-02-01T10:28:45;7.53;;;1.87;;
16735;SDS011;17990;49.548;9.730;2023-02-01T10:31:15;8.03;;;2.10;;
16735;SDS011;17990;49.548;9.730;2023-02-01T10:33:44;11.63;;;2.47;;
16735;SDS011;17990;49.548;9.730;2023-02-01T10:36:13;7.20;;;1.70;;
16735;SDS011;17990;49.548;9.730;2023-02-01T10:38:43;8.60;;;2.00;;
16735;SDS011;17990;49.548;9.730;2023-02-01T10:41:12;9.37;;;1.87;;
16735;SDS011;17990;49.548;9.730;2023-02-01T10:43:40;9.53;;;2.10;;
16735;SDS011;17990;49.548;9.730;2023-02-01T10:46:08;6.90;;;1.93;;
16735;SDS011;17990;49.548;9.730;2023-02-01T10:48:35;8.17;;;2.00;;
16735;SDS011;17990;49.548;9.730;2023-02-01T10:51:05;6.80;;;1.83;;
16735;SDS011;17990;49.548;9.730;2023-02-01T10:53:38;8.83;;;2.67;;
16735;SDS011;17990;49.548;9.730;2023-02-01T10:56:09;8.40;;;2.03;;
16735;SDS011;17990;49.548;9.730;2023-02-01T10:58:42;6.83;;;2.47;;
16735;SDS011;17990;49.548;9.730;2023-02-01T11:01:14;9.23;;;2.00;;
16735;SDS011;17990;49.548;9.730;2023-02-01T11:03:44;7.80;;;1.70;;
16735;SDS011;17990;49.548;9.730;2023-02-01T11:06:21;8.13;;;2.40;;
16735;SDS011;17990;49.548;9.730;2023-02-01T11:08:54;9.63;;;1.63;;
16735;SDS011;17990;49.548;9.730;2023-02-01T11:11:22;8.87;;;2.00;;
16735;SDS011;17990;49.548;9.730;2023-02-01T11:13:53;8.33;;;2.13;;
16735;SDS011;17990;49.548;9.730;2023-02-01T11:16:23;9.43;;;2.10;;
16735;SDS011;17990;49.548;9.730;2023-02-01T11:18:57;10.33;;;2.00;;
16735;SDS011;17990;49.548;9.730;2023-02-01T11:21:26;11.40;;;2.20;;
16735;SDS011;17990;49.548;9.730;2023-02-01T11:23:54;9.00;;;2.10;;
16735;SDS011;17990;49.548;9.730;2023-02-01T11:26:21;8.40;;;1.63;;
16735;SDS011;17990;49.548;9.730;2023-02-01T11:28:54;7.43;;;1.67;;
16735;SDS011;17990;49.548;9.730;2023-02-01T11:31:25;10.10;;;2.33;;
16735;SDS011;17990;49.548;9.730;2023-02-01T11:33:53;7.00;;;1.60;;
16735;SDS011;17990;49.548;9.730;2023-02-01T11:36:29;8.73;;;1.83;;
16735;SDS011;17990;49.548;9.730;2023-02-01T11:39:07;10.10;;;2.00;;
16735;SDS011;17990;49.548;9.730;2023-02-01T11:41:40;9.93;;;1.90;;
16735;SDS011;17990;49.548;9.730;2023-02-01T11:44:18;7.60;;;1.60;;
16735;SDS011;17990;49.548;9.730;2023-02-01T11:46:47;11.00;;;2.77;;
16735;SDS011;17990;49.548;9.730;2023-02-01T11:49:19;9.90;;;2.20;;
16735;SDS011;17990;49.548;9.730;2023-02-01T11:51:53;9.93;;;1.70;;
16735;SDS011;17990;49.548;9.730;2023-02-01T11:57:22;6.57;;;2.00;;
16735;SDS011;17990;49.548;9.730;2023-02-01T12:00:08;8.97;;;1.97;;
16735;SDS011;17990;49.548;9.730;2023-02-01T12:02:52;13.53;;;2.30;;
16735;SDS011;17990;49.548;9.730;2023-02-01T12:05:34;7.73;;;2.23;;
16735;SDS011;17990;49.548;9.730;2023-02-01T12:08:15;8.73;;;2.30;;
16735;SDS011;17990;49.548;9.730;2023-02-01T12:10:54;9.17;;;1.90;;
16735;SDS011;17990;49.548;9.730;2023-02-01T12:13:32;7.23;;;1.83;;
16735;SDS011;17990;49.548;9.730;2023-02-01T12:16:08;9.20;;;1.90;;
16735;SDS011;17990;49.548;9.730;2023-02-01T12:18:45;11.27;;;1.70;;
16735;SDS011;17990;49.548;9.730;2023-02-01T12:21:34;8.20;;;1.70;;
16735;SDS011;17990;49.548;9.730;2023-02-01T12:27:10;15.63;;;2.20;;
16735;SDS011;17990;49.548;9.730;2023-02-01T12:30:01;9.27;;;2.23;;
16735;SDS011;17990;49.548;9.730;2023-02-01T12:32:41;16.47;;;3.70;;
16735;SDS011;17990;49.548;9.730;2023-02-01T12:35:29;9.30;;;2.33;;
16735;SDS011;17990;49.548;9.730;2023-02-01T12:38:24;6.70;;;1.70;;
16735;SDS011;17990;49.548;9.730;2023-02-01T12:41:13;9.73;;;1.90;;
16735;SDS011;17990;49.548;9.730;2023-02-01T12:43:52;6.80;;;2.70;;
16735;SDS011;17990;49.548;9.730;2023-02-01T12:46:21;9.67;;;2.10;;
16735;SDS011;17990;49.548;9.730;2023-02-01T12:48:53;9.83;;;2.77;;
16735;SDS011;17990;49.548;9.730;2023-02-01T12:51:24;9.03;;;2.10;;
16735;SDS011;17990;49.548;9.730;2023-02-01T12:53:54;8.53;;;2.23;;
16735;SDS011;17990;49.548;9.730;2023-02-01T12:56:27;11.57;;;1.83;;
16735;SDS011;17990;49.548;9.730;2023-02-01T12:58:58;9.43;;;2.00;;
16735;SDS011;17990;49.548;9.730;2023-02-01T13:01:29;9.03;;;2.20;;
16735;SDS011;17990;49.548;9.730;2023-02-01T13:04:02;12.60;;;2.90;;
16735;SDS011;17990;49.548;9.730;2023-02-01T13:06:37;8.47;;;1.80;;
16735;SDS011;17990;49.548;9.730;2023-02-01T13:09:19;8.97;;;2.20;;
16735;SDS011;17990;49.548;9.730;2023-02-01T13:11:51;13.80;;;2.20;;
16735;SDS011;17990;49.548;9.730;2023-02-01T13:14:22;10.97;;;2.03;;
16735;SDS011;17990;49.548;9.730;2023-02-01T13:16:56;11.93;;;2.67;;
16735;SDS011;17990;49.548;9.730;2023-02-01T13:19:27;11.17;;;3.50;;
16735;SDS011;17990;49.548;9.730;2023-02-01T13:22:08;10.60;;;2.27;;
16735;SDS011;17990;49.548;9.730;2023-02-01T13:24:39;7.70;;;2.07;;
16735;SDS011;17990;49.548;9.730;2023-02-01T13:27:12;10.87;;;2.53;;
16735;SDS011;17990;49.548;9.730;2023-02-01T13:29:42;9.03;;;2.30;;
16735;SDS011;17990;49.548;9.730;2023-02-01T13:32:18;11.60;;;2.13;;
16735;SDS011;17990;49.548;9.730;2023-02-01T13:34:58;6.23;;;1.60;;
16735;SDS011;17990;49.548;9.730;2023-02-01T13:37:47;11.47;;;2.37;;
16735;SDS011;17990;49.548;9.730;2023-02-01T13:40:31;8.53;;;1.60;;
16735;SDS011;17990;49.548;9.730;2023-02-01T13:43:06;8.20;;;2.20;;
16735;SDS011;17990;49.548;9.730;2023-02-01T13:45:41;12.17;;;2.17;;
16735;SDS011;17990;49.548;9.730;2023-02-01T13:48:14;7.37;;;1.83;;
16735;SDS011;17990;49.548;9.730;2023-02-01T13:50:48;9.90;;;1.80;;
16735;SDS011;17990;49.548;9.730;2023-02-01T13:53:18;7.80;;;1.50;;
16735;SDS011;17990;49.548;9.730;2023-02-01T13:55:49;12.00;;;2.43;;
16735;SDS011;17990;49.548;9.730;2023-02-01T13:58:29;10.77;;;2.50;;
16735;SDS011;17990;49.548;9.730;2023-02-01T14:07:17;9.13;;;2.30;;
16735;SDS011;17990;49.548;9.730;2023-02-01T14:09:45;15.57;;;2.90;;
16735;SDS011;17990;49.548;9.730;2023-02-01T14:15:19;13.23;;;2.53;;
16735;SDS011;17990;49.548;9.730;2023-02-01T14:17:48;10.20;;;2.47;;
16735;SDS011;17990;49.548;9.730;2023-02-01T14:23:18;12.20;;;3.27;;
16735;SDS011;17990;49.548;9.730;2023-02-01T14:26:06;18.87;;;4.50;;
16735;SDS011;17990;49.548;9.730;2023-02-01T14:28:36;11.67;;;4.13;;
16735;SDS011;17990;49.548;9.730;2023-02-01T14:31:41;15.50;;;3.30;;
16735;SDS011;17990;49.548;9.730;2023-02-01T14:34:12;10.17;;;2.70;;
16735;SDS011;17990;49.548;9.730;2023-02-01T14:36:43;9.43;;;2.20;;
16735;SDS011;17990;49.548;9.730;2023-02-01T14:39:22;11.57;;;2.60;;
16735;SDS011;17990;49.548;9.730;2023-02-01T14:41:53;9.87;;;2.63;;
16735;SDS011;17990;49.548;9.730;2023-02-01T14:44:25;8.47;;;2.27;;
16735;SDS011;17990;49.548;9.730;2023-02-01T14:47:25;6.43;;;2.10;;
16735;SDS011;17990;49.548;9.730;2023-02-01T14:49:55;11.90;;;1.67;;
16735;SDS011;17990;49.548;9.730;2023-02-01T14:52:29;12.07;;;2.97;;
16735;SDS011;17990;49.548;9.730;2023-02-01T14:55:00;8.90;;;2.47;;
16735;SDS011;17990;49.548;9.730;2023-02-01T14:57:31;9.13;;;2.10;;
16735;SDS011;17990;49.548;9.730;2023-02-01T15:00:05;7.87;;;1.63;;
16735;SDS011;17990;49.548;9.730;2023-02-01T15:02:40;10.63;;;2.10;;
16735;SDS011;17990;49.548;9.730;2023-02-01T15:05:18;10.17;;;2.10;;
16735;SDS011;17990;49.548;9.730;2023-02-01T15:07:50;8.97;;;2.17;;
16735;SDS011;17990;49.548;9.730;2023-02-01T15:10:17;10.20;;;2.30;;
16735;SDS011;17990;49.548;9.730;2023-02-01T15:12:45;9.20;;;2.30;;
16735;SDS011;17990;49.548;9.730;2023-02-01T15:15:15;16.80;;;2.00;;
16735;SDS011;17990;49.548;9.730;2023-02-01T15:17:50;8.53;;;1.80;;
16735;SDS011;17990;49.548;9.730;2023-02-01T15:20:19;12.37;;;2.10;;
16735;SDS011;17990;49.548;9.730;2023-02-01T15:22:55;14.10;;;2.53;;
16735;SDS011;17990;49.548;9.730;2023-02-01T15:25:26;10.13;;;1.80;;
16735;SDS011;17990;49.548;9.730;2023-02-01T15:27:54;13.13;;;1.90;;
16735;SDS011;17990;49.548;9.730;2023-02-01T15:30:22;8.83;;;2.17;;
16735;SDS011;17990;49.548;9.730;2023-02-01T15:33:03;15.80;;;2.50;;